Terminal Aerodrome Forecast
Issued by NWS Lake Charles, LA

Home | Current Version | Previous Version | Text Only | Print | Product List | Glossary On
Versions: 1 2 3 4 5 6 7 8 9 10 11 12 13 14
000
FTUS44 KLCH 290200 AAB
TAFARA
TAF AMD
KARA 290203Z 2902/2924 25004KT P6SM VCTS FEW029CB
      TEMPO 2902/2903 03020G30KT 3SM TSRA BKN015CB
     FM290500 28003KT P6SM SCT035
     FM291100 36004KT P6SM SCT250
     FM291500 03007KT P6SM SKC=

USA.gov is the U.S. government's official web portal to all federal, state and local government web resources and services.